Airport View

Enter AWOS ICAO identifier for current METAR.

ex. KFNL

KBEC 251115Z AUTO 03009KT OVC012 03/01 A3010 RMK AO2 T00310008 PWINO

25 Oct 2020 11:31

Frequency: 119.45

Phone: 316-515-7116

Other Area AWOS: KAAO - KIAB - K3AU - K1K1

TAF KIAB 250900Z 2509/2615 05009KT 9999 SCT010 OVC020 620202 QNH3006INS BECMG 2520/2521 01012G18KT 8000 -SHRA BKN015 QNH3008INS BECMG 2602/2603 01015G20KT 8000 -FZDZ BKN006 660001 650066 520803 QNH3018INS BECMG 2605/2606 01020G25KT 8000 -FZRA OVC006 690001 650066 520433 QNH3027INS TX04/2519Z TNM01/2607Z LAST NO AMDS AFT 2509 NEXT 2610